Time;durP1;ratioP1;P1;durP2;ratioP2;P2;SDS_P1;SDS_P2;PMS_P1;PMS_P2;Temp;Humidity;BMP_temperature;BMP_pressure;BME280_temperature;BME280_humidity;BME280_pressure;Samples;Min_cycle;Max_cycle;Signal;HPM_P1;HPM_P2
2022/02/25 00:00:39;;;;;;;7.33;3.10;;;;;;;-2.82;76.19;95946.27;1796110;80;21013;-72
2022/02/25 00:03:08;;;;;;;7.23;3.40;;;;;;;-2.74;75.94;95950.02;1796138;80;21070;-68
2022/02/25 00:05:35;;;;;;;6.53;3.40;;;;;;;-2.66;76.13;95952.47;1796390;79;20991;-68
2022/02/25 00:08:03;;;;;;;7.70;3.20;;;;;;;-2.52;76.26;95953.00;1796140;80;21436;-68
2022/02/25 00:10:30;;;;;;;10.23;3.37;;;;;;;-2.55;75.14;95949.41;1796234;80;21007;-69
2022/02/25 00:12:56;;;;;;;8.17;3.87;;;;;;;-2.71;75.58;95957.88;1796241;79;21473;-68
2022/02/25 00:15:23;;;;;;;10.20;5.30;;;;;;;-2.85;76.37;95951.29;1796131;80;21029;-68
2022/02/25 00:17:50;;;;;;;11.67;4.70;;;;;;;-3.07;76.80;95948.31;1796118;79;21002;-68
2022/02/25 00:20:17;;;;;;;4.67;2.73;;;;;;;-3.15;77.01;95940.27;1796387;80;21467;-68
2022/02/25 00:22:43;;;;;;;6.10;3.10;;;;;;;-3.15;76.58;95945.43;1795928;80;20991;-68
2022/02/25 00:25:11;;;;;;;7.07;2.80;;;;;;;-3.13;76.98;95939.89;1796364;80;21521;-68
2022/02/25 00:27:43;;;;;;;8.50;2.97;;;;;;;-3.09;76.50;95943.49;1796235;79;21468;-67
2022/02/25 00:30:12;;;;;;;7.10;2.77;;;;;;;-3.10;76.68;95943.91;1796154;80;21022;-68
2022/02/25 00:32:39;;;;;;;5.27;3.17;;;;;;;-3.03;76.59;95956.63;1796191;80;20962;-68
2022/02/25 00:35:07;;;;;;;8.60;3.40;;;;;;;-3.00;76.68;95956.73;1796373;80;21501;-68
2022/02/25 00:37:33;;;;;;;5.83;3.00;;;;;;;-2.92;76.66;95959.65;1778475;80;21046;-68
2022/02/25 00:40:02;;;;;;;5.73;3.00;;;;;;;-2.95;76.37;95958.21;1768393;81;21005;-68
2022/02/25 00:42:28;;;;;;;7.83;2.97;;;;;;;-3.03;76.02;95963.08;1768517;81;21018;-68
2022/02/25 00:44:55;;;;;;;8.63;3.10;;;;;;;-3.02;76.18;95958.79;1768494;80;21041;-68
2022/02/25 00:47:22;;;;;;;4.73;2.63;;;;;;;-3.02;76.23;95963.95;1768531;81;21492;-68
2022/02/25 00:49:48;;;;;;;4.83;2.53;;;;;;;-3.03;76.09;95970.82;1768545;81;21529;-69
2022/02/25 00:52:15;;;;;;;5.83;2.60;;;;;;;-3.12;75.90;95958.45;1768529;80;21003;-68
2022/02/25 00:54:44;;;;;;;5.80;2.30;;;;;;;-3.19;76.40;95954.28;1768499;80;21042;-68
2022/02/25 00:57:10;;;;;;;6.50;2.63;;;;;;;-3.30;76.33;95955.11;1768520;81;20987;-68
2022/02/25 00:59:37;;;;;;;6.97;3.00;;;;;;;-3.37;76.47;95961.75;1768701;80;21003;-68
2022/02/25 01:02:04;;;;;;;4.47;2.17;;;;;;;-3.33;76.76;95967.91;1768598;80;20987;-68
2022/02/25 01:04:31;;;;;;;7.23;3.10;;;;;;;-3.27;76.58;95964.30;1768448;80;20979;-68
2022/02/25 01:06:57;;;;;;;4.50;2.40;;;;;;;-3.30;76.25;95961.18;1768833;81;21464;-68
2022/02/25 01:09:25;;;;;;;4.87;2.33;;;;;;;-3.36;76.35;95959.63;1768274;81;21058;-68
2022/02/25 01:11:52;;;;;;;4.60;2.23;;;;;;;-3.35;76.47;95964.38;1768466;80;21019;-68
2022/02/25 01:14:19;;;;;;;3.87;2.20;;;;;;;-3.28;76.92;95962.52;1768483;80;21038;-67
2022/02/25 01:16:46;;;;;;;3.47;2.07;;;;;;;-3.31;76.44;95971.43;1768624;81;21073;-67
2022/02/25 01:19:13;;;;;;;7.03;2.17;;;;;;;-3.33;76.80;95965.32;1768412;81;20995;-68
2022/02/25 01:21:39;;;;;;;4.50;2.03;;;;;;;-3.25;76.91;95970.41;1768619;81;20994;-68
2022/02/25 01:24:06;;;;;;;6.03;1.83;;;;;;;-3.26;76.10;95967.33;1768703;81;21006;-68
2022/02/25 01:26:33;;;;;;;5.77;2.20;;;;;;;-3.30;76.38;95966.34;1768386;80;21445;-68
2022/02/25 01:29:01;;;;;;;5.40;2.20;;;;;;;-3.31;76.44;95957.23;1768693;80;21025;-68
2022/02/25 01:31:27;;;;;;;5.23;2.53;;;;;;;-3.25;76.54;95963.95;1768535;80;20979;-68
2022/02/25 01:33:54;;;;;;;5.50;2.53;;;;;;;-3.17;76.67;95948.77;1768415;80;21017;-68
2022/02/25 01:36:20;;;;;;;5.00;1.80;;;;;;;-3.22;76.16;95961.91;1768779;80;21022;-68
2022/02/25 01:38:47;;;;;;;5.20;2.13;;;;;;;-3.33;75.78;95959.74;1796390;80;21070;-68
2022/02/25 01:41:13;;;;;;;4.00;1.73;;;;;;;-3.47;75.77;95971.64;1796218;80;21018;-68
2022/02/25 01:43:41;;;;;;;8.03;3.23;;;;;;;-3.44;76.70;95964.02;1796113;80;21025;-68
2022/02/25 01:46:07;;;;;;;8.17;4.00;;;;;;;-3.41;76.77;95967.59;1796080;80;20978;-68
2022/02/25 01:48:35;;;;;;;14.37;5.57;;;;;;;-3.37;76.85;95965.62;1796287;80;21054;-68
2022/02/25 01:51:04;;;;;;;16.10;7.70;;;;;;;-3.39;76.98;95959.92;1796305;80;21503;-68
2022/02/25 01:53:31;;;;;;;16.60;8.07;;;;;;;-3.46;76.97;95964.36;1796270;80;20979;-68
2022/02/25 01:55:57;;;;;;;13.80;5.80;;;;;;;-3.49;77.58;95959.54;1796317;79;20979;-68
2022/02/25 01:58:25;;;;;;;4.77;2.30;;;;;;;-3.49;77.07;95959.54;1796368;79;21070;-67
2022/02/25 02:00:52;;;;;;;5.10;2.30;;;;;;;-3.52;77.18;95954.68;1796207;80;20975;-68
2022/02/25 02:03:19;;;;;;;4.37;1.40;;;;;;;-3.50;77.33;95954.34;1796281;80;21006;-68
2022/02/25 02:05:45;;;;;;;5.47;2.60;;;;;;;-3.47;76.58;95944.14;1796257;80;20995;-67
2022/02/25 02:08:13;;;;;;;5.00;2.23;;;;;;;-3.50;76.84;95944.90;1796182;80;21441;-68
2022/02/25 02:10:40;;;;;;;4.47;1.87;;;;;;;-3.32;77.23;95939.59;1796247;80;20987;-68
2022/02/25 02:13:06;;;;;;;5.50;2.27;;;;;;;-3.37;76.84;95944.11;1796491;79;20986;-68
2022/02/25 02:15:34;;;;;;;5.27;1.93;;;;;;;-3.51;76.34;95927.64;1796257;80;21030;-68
2022/02/25 02:18:00;;;;;;;7.07;2.23;;;;;;;-3.57;76.70;95931.69;1796158;80;20991;-68
2022/02/25 02:20:27;;;;;;;6.23;1.90;;;;;;;-3.45;77.46;95929.99;1796347;80;21476;-68
2022/02/25 02:22:54;;;;;;;3.53;2.03;;;;;;;-3.47;76.69;95920.92;1796310;80;20990;-68
2022/02/25 02:25:20;;;;;;;6.20;2.30;;;;;;;-3.50;76.65;95917.81;1796337;80;21014;-68
2022/02/25 02:30:32;;;;;;;5.03;2.27;;;;;;;-3.31;76.68;95912.08;1796094;80;20987;-68
2022/02/25 02:32:59;;;;;;;4.00;1.80;;;;;;;-3.18;77.08;95916.02;1796093;80;20998;-68
2022/02/25 02:35:26;;;;;;;6.93;3.00;;;;;;;-3.21;76.68;95910.33;1796148;79;20991;-68
2022/02/25 02:37:52;;;;;;;5.63;2.20;;;;;;;-3.31;76.31;95909.50;1782542;79;21046;-68
2022/02/25 02:40:19;;;;;;;4.53;2.20;;;;;;;-3.32;76.69;95909.92;1768437;80;21027;-68
2022/02/25 02:42:45;;;;;;;3.93;2.00;;;;;;;-3.24;76.82;95910.22;1768512;80;20955;-68
2022/02/25 02:45:15;;;;;;;4.80;3.03;;;;;;;-3.21;76.46;95906.88;1768440;80;20983;-68
2022/02/25 02:47:42;;;;;;;6.10;3.10;;;;;;;-3.36;76.75;95905.86;1768471;81;20998;-68
2022/02/25 02:50:10;;;;;;;10.50;4.63;;;;;;;-3.27;77.15;95902.36;1768228;80;21015;-68
2022/02/25 02:52:36;;;;;;;4.47;2.40;;;;;;;-3.27;76.51;95892.05;1768566;80;20986;-68
2022/02/25 02:55:04;;;;;;;7.67;2.97;;;;;;;-3.19;76.82;95897.50;1768469;81;21014;-68
2022/02/25 02:57:31;;;;;;;6.47;2.30;;;;;;;-3.07;76.90;95898.85;1768472;80;20959;-68
2022/02/25 02:59:57;;;;;;;5.97;2.60;;;;;;;-3.00;76.42;95896.48;1768526;80;21011;-68
2022/02/25 03:02:24;;;;;;;3.83;2.77;;;;;;;-2.99;76.36;95896.56;1768345;80;20983;-68
2022/02/25 03:04:52;;;;;;;9.97;2.60;;;;;;;-2.91;76.29;95887.39;1768434;80;21532;-68
2022/02/25 03:07:18;;;;;;;5.30;2.60;;;;;;;-2.90;75.83;95886.59;1768466;80;20999;-68
2022/02/25 03:09:45;;;;;;;4.33;2.53;;;;;;;-2.91;75.60;95887.81;1768535;80;21468;-68
2022/02/25 03:12:11;;;;;;;6.13;2.97;;;;;;;-3.07;76.35;95893.69;1768181;81;20983;-68
2022/02/25 03:14:38;;;;;;;5.10;2.50;;;;;;;-3.17;75.83;95885.55;1768565;80;21500;-68
2022/02/25 03:17:05;;;;;;;5.83;2.30;;;;;;;-3.23;76.58;95885.28;1768444;80;20999;-68
2022/02/25 03:19:35;;;;;;;4.93;3.17;;;;;;;-3.13;76.46;95882.23;1768407;80;21006;-68
2022/02/25 03:22:01;;;;;;;7.57;3.60;;;;;;;-3.26;77.37;95874.44;1768467;81;20995;-68
2022/02/25 03:24:28;;;;;;;6.43;2.70;;;;;;;-3.31;77.71;95875.96;1768305;80;21085;-68
2022/02/25 03:26:55;;;;;;;5.43;2.67;;;;;;;-3.19;77.65;95875.56;1768239;81;21698;-68
2022/02/25 03:29:22;;;;;;;5.13;2.87;;;;;;;-3.12;77.41;95878.86;1768505;80;20987;-68
2022/02/25 03:31:49;;;;;;;5.37;2.67;;;;;;;-3.08;77.49;95873.84;1768362;80;21563;-68
2022/02/25 03:34:15;;;;;;;4.10;2.47;;;;;;;-3.12;76.73;95874.56;1768382;80;21027;-68
2022/02/25 03:36:42;;;;;;;4.90;2.63;;;;;;;-3.22;77.32;95875.45;1768193;80;21026;-68
2022/02/25 03:39:09;;;;;;;4.23;2.23;;;;;;;-3.13;77.58;95870.63;1768078;80;21022;-68
2022/02/25 03:41:35;;;;;;;5.97;2.33;;;;;;;-3.19;77.18;95872.98;1768517;80;21006;-68
2022/02/25 03:44:03;;;;;;;2.87;1.73;;;;;;;-3.20;77.19;95866.95;1768551;80;21464;-68
2022/02/25 03:46:29;;;;;;;7.60;2.80;;;;;;;-3.19;77.35;95867.41;1768447;80;21070;-68
2022/02/25 03:48:56;;;;;;;8.90;4.50;;;;;;;-3.14;77.78;95867.17;1768456;80;20971;-68
2022/02/25 03:51:23;;;;;;;8.03;3.57;;;;;;;-3.07;77.30;95867.00;1768500;80;21026;-68
2022/02/25 03:53:50;;;;;;;5.23;2.33;;;;;;;-3.10;76.82;95867.77;1768307;80;21010;-68
2022/02/25 03:56:17;;;;;;;5.73;2.60;;;;;;;-3.17;76.90;95878.67;1768435;80;21484;-68
2022/02/25 03:58:44;;;;;;;6.17;2.60;;;;;;;-3.05;77.38;95875.66;1768491;80;21002;-68
2022/02/25 04:01:11;;;;;;;7.03;3.13;;;;;;;-2.99;76.60;95867.29;1768462;81;21433;-68
2022/02/25 04:03:38;;;;;;;9.67;3.30;;;;;;;-2.94;76.80;95861.89;1768368;81;21049;-68
2022/02/25 04:06:04;;;;;;;4.50;2.47;;;;;;;-2.89;76.88;95854.77;1768462;80;20963;-68
2022/02/25 04:08:33;;;;;;;6.80;2.13;;;;;;;-2.80;76.63;95856.80;1768591;81;20999;-68
2022/02/25 04:11:00;;;;;;;5.67;2.27;;;;;;;-2.74;76.16;95854.45;1768616;80;21050;-68
2022/02/25 04:13:27;;;;;;;8.60;3.10;;;;;;;-2.81;75.62;95855.47;1768556;80;21472;-68
2022/02/25 04:15:53;;;;;;;7.53;2.97;;;;;;;-2.81;75.76;95863.22;1768570;80;21019;-68
2022/02/25 04:18:20;;;;;;;6.93;3.10;;;;;;;-2.78;75.76;95858.16;1768608;81;20995;-68
2022/02/25 04:20:46;;;;;;;5.47;2.23;;;;;;;-2.78;75.38;95846.12;1768518;80;20990;-68
2022/02/25 04:23:13;;;;;;;6.57;2.50;;;;;;;-2.79;75.34;95847.37;1768641;80;21003;-67
2022/02/25 04:25:39;;;;;;;16.80;7.13;;;;;;;-2.81;75.25;95848.59;1768786;80;21003;-68
2022/02/25 04:28:06;;;;;;;23.30;9.10;;;;;;;-2.78;75.07;95849.99;1768490;80;20998;-67
2022/02/25 04:30:33;;;;;;;22.27;8.50;;;;;;;-2.87;74.56;95851.84;1768676;80;21484;-67
2022/02/25 04:32:59;;;;;;;11.60;6.37;;;;;;;-2.94;74.40;95856.72;1768517;80;20983;-67
2022/02/25 04:35:26;;;;;;;13.20;5.90;;;;;;;-3.13;74.73;95856.02;1768551;80;21049;-68
2022/02/25 04:37:53;;;;;;;2.47;1.33;;;;;;;-3.32;74.54;95855.73;1775893;80;21022;-67
2022/02/25 04:40:20;;;;;;;5.47;2.40;;;;;;;-3.32;75.23;95859.61;1796423;80;21030;-66
2022/02/25 04:42:47;;;;;;;4.40;1.60;;;;;;;-3.34;75.38;95857.38;1796261;80;21018;-65
2022/02/25 04:45:15;;;;;;;2.00;1.30;;;;;;;-3.35;75.28;95856.91;1796433;79;20979;-66
2022/02/25 04:47:42;;;;;;;4.93;2.07;;;;;;;-3.28;75.50;95860.59;1796435;80;21038;-66
2022/02/25 04:50:10;;;;;;;3.13;1.67;;;;;;;-3.24;75.61;95859.90;1796152;80;21512;-66
2022/02/25 04:52:37;;;;;;;2.70;1.37;;;;;;;-3.19;75.33;95864.83;1796447;79;20987;-66
2022/02/25 04:55:04;;;;;;;4.27;1.53;;;;;;;-3.19;74.83;95858.79;1796258;80;21003;-66
2022/02/25 04:57:31;;;;;;;3.10;1.47;;;;;;;-3.43;74.39;95863.45;1796220;80;21015;-66
2022/02/25 04:59:58;;;;;;;3.57;2.07;;;;;;;-3.51;74.80;95867.02;1796269;80;20968;-66
2022/02/25 05:02:26;;;;;;;3.80;1.80;;;;;;;-3.58;74.70;95867.63;1796355;79;21101;-67
2022/02/25 05:04:53;;;;;;;2.57;1.57;;;;;;;-3.68;74.67;95870.63;1796264;80;21014;-66
2022/02/25 05:07:19;;;;;;;4.87;2.30;;;;;;;-3.65;75.45;95872.06;1796391;80;21082;-66
2022/02/25 05:09:46;;;;;;;4.90;3.30;;;;;;;-3.70;75.99;95876.16;1796234;80;21007;-66
2022/02/25 05:12:12;;;;;;;8.60;3.90;;;;;;;-3.74;76.16;95882.88;1796271;80;20967;-67
2022/02/25 05:20:15;;;;;;;3.33;1.80;;;;;;;-3.71;76.42;95876.95;1796326;80;21029;-66
2022/02/25 05:22:45;;;;;;;4.75;1.82;;;;;;;-3.61;76.07;95876.92;1796521;80;20998;-66
2022/02/25 05:25:12;;;;;;;2.77;1.20;;;;;;;-3.78;75.37;95873.27;1796436;80;21556;-66
2022/02/25 05:27:39;;;;;;;2.73;1.57;;;;;;;-3.89;75.56;95880.09;1796278;79;21009;-66
2022/02/25 05:30:07;;;;;;;6.80;3.00;;;;;;;-4.01;76.70;95887.77;1796431;80;21457;-66
2022/02/25 05:32:33;;;;;;;3.27;1.23;;;;;;;-4.00;76.70;95893.41;1796178;80;21034;-66
2022/02/25 05:34:59;;;;;;;3.60;1.67;;;;;;;-3.82;77.20;95883.39;1796249;80;21066;-66
2022/02/25 05:37:26;;;;;;;4.53;1.47;;;;;;;-3.73;76.48;95883.36;1796280;80;21022;-66
2022/02/25 05:39:53;;;;;;;3.10;1.50;;;;;;;-3.61;76.73;95881.66;1796221;80;21556;-66
2022/02/25 05:42:20;;;;;;;2.77;1.40;;;;;;;-3.45;76.61;95892.20;1796282;79;20987;-66
2022/02/25 05:44:48;;;;;;;5.00;1.33;;;;;;;-3.43;75.94;95895.70;1796197;80;21995;-66
2022/02/25 05:47:14;;;;;;;5.80;2.20;;;;;;;-3.46;75.93;95902.45;1796414;80;20983;-66
2022/02/25 05:49:40;;;;;;;6.57;3.10;;;;;;;-3.41;77.12;95907.38;1796132;80;21010;-66
2022/02/25 05:52:07;;;;;;;2.93;1.77;;;;;;;-3.30;77.16;95898.34;1796355;80;21508;-66
2022/02/25 05:54:34;;;;;;;5.80;3.97;;;;;;;-3.20;77.20;95900.88;1796310;80;21010;-67
2022/02/25 05:57:00;;;;;;;14.03;9.20;;;;;;;-3.12;76.75;95895.63;1796139;80;20991;-66
2022/02/25 05:59:27;;;;;;;19.07;10.70;;;;;;;-3.02;77.11;95894.25;1796252;80;21046;-66
2022/02/25 06:01:53;;;;;;;8.33;4.40;;;;;;;-2.87;76.86;95897.02;1796361;79;21506;-66
2022/02/25 06:04:21;;;;;;;13.77;7.77;;;;;;;-2.84;75.96;95893.68;1796069;80;21030;-69
2022/02/25 06:06:48;;;;;;;11.13;5.53;;;;;;;-2.89;75.77;95893.92;1796125;80;20971;-65
2022/02/25 06:09:14;;;;;;;14.87;6.77;;;;;;;-2.98;76.76;95887.11;1796106;80;21026;-67
2022/02/25 06:11:41;;;;;;;29.77;13.50;;;;;;;-2.95;77.84;95892.37;1795705;80;21543;-67
2022/02/25 06:14:08;;;;;;;16.93;10.17;;;;;;;-2.77;78.10;95895.67;1795124;79;21535;-67
2022/02/25 06:16:34;;;;;;;12.70;8.40;;;;;;;-2.60;77.95;95900.14;1794497;80;22214;-68
2022/02/25 06:19:01;;;;;;;12.83;6.27;;;;;;;-2.43;77.84;95904.64;1794452;79;21385;-68
2022/02/25 06:21:27;;;;;;;16.03;7.20;;;;;;;-2.37;76.80;95898.38;1795054;79;21595;-67
2022/02/25 06:23:54;;;;;;;21.57;11.00;;;;;;;-2.40;76.98;95897.86;1794898;80;21037;-68
2022/02/25 06:26:21;;;;;;;12.30;5.40;;;;;;;-2.43;76.69;95891.30;1795947;80;21483;-68
2022/02/25 06:28:48;;;;;;;14.53;8.60;;;;;;;-2.41;77.18;95897.41;1795288;79;21018;-67
2022/02/25 06:31:14;;;;;;;20.23;10.73;;;;;;;-2.30;77.42;95894.33;1796414;79;21074;-68
2022/02/25 06:33:41;;;;;;;19.73;11.73;;;;;;;-2.15;77.46;95899.16;1796045;80;21022;-68
2022/02/25 06:36:07;;;;;;;16.83;8.67;;;;;;;-2.05;77.02;95892.19;1795501;80;21559;-67
2022/02/25 06:38:34;;;;;;;15.53;8.60;;;;;;;-1.99;76.64;95897.16;1795556;79;21026;-69
2022/02/25 06:41:01;;;;;;;19.10;7.80;;;;;;;-1.92;76.37;95896.94;1792667;79;21006;-69
2022/02/25 06:43:27;;;;;;;16.00;8.60;;;;;;;-1.94;76.16;95902.50;1795744;80;21022;-68
2022/02/25 06:45:54;;;;;;;16.93;8.97;;;;;;;-1.94;76.20;95908.96;1795714;80;21109;-69
2022/02/25 06:48:21;;;;;;;16.23;9.10;;;;;;;-2.02;76.66;95908.67;1796085;79;21030;-69
2022/02/25 06:50:49;;;;;;;15.90;8.50;;;;;;;-1.88;76.68;95909.58;1794944;79;21064;-67
2022/02/25 06:53:15;;;;;;;16.37;9.47;;;;;;;-1.76;76.59;95910.88;1795964;80;21034;-68
2022/02/25 06:55:42;;;;;;;19.10;12.90;;;;;;;-1.66;76.11;95907.27;1795868;79;21021;-68
2022/02/25 06:58:08;;;;;;;13.37;9.47;;;;;;;-1.47;76.08;95898.42;1795202;79;21011;-69
2022/02/25 07:00:37;;;;;;;26.50;18.93;;;;;;;-1.33;75.12;95897.17;1766428;80;20994;-69
2022/02/25 07:03:06;;;;;;;13.63;7.97;;;;;;;-1.16;74.80;95892.49;1793925;80;21061;-69
2022/02/25 07:05:33;;;;;;;13.33;8.20;;;;;;;-0.93;73.90;95890.64;1794400;80;21441;-67
2022/02/25 07:08:00;;;;;;;15.50;8.33;;;;;;;-0.78;71.75;95892.78;1795559;79;21025;-72
2022/02/25 07:10:26;;;;;;;14.93;8.20;;;;;;;-0.63;71.56;95881.59;1795931;80;21010;-69
2022/02/25 07:12:53;;;;;;;13.23;9.07;;;;;;;-0.48;71.70;95885.92;1795260;80;21088;-68
2022/02/25 07:15:19;;;;;;;24.23;14.77;;;;;;;-0.37;72.12;95887.94;1795852;80;20982;-67
2022/02/25 07:17:46;;;;;;;17.53;10.57;;;;;;;-0.22;71.68;95880.16;1794620;80;21137;-69
2022/02/25 07:20:13;;;;;;;12.80;8.27;;;;;;;-0.04;71.75;95878.47;1794765;79;21084;-68
2022/02/25 07:22:41;;;;;;;8.80;4.27;;;;;;;0.08;70.03;95871.86;1794597;79;21054;-69
2022/02/25 07:25:08;;;;;;;7.57;3.30;;;;;;;0.21;70.65;95871.33;1794883;80;21455;-70
2022/02/25 07:27:35;;;;;;;9.63;5.50;;;;;;;0.23;69.41;95880.44;1795435;79;21504;-71
2022/02/25 07:30:03;;;;;;;8.60;5.27;;;;;;;0.22;69.65;95880.86;1795538;80;20982;-71
2022/02/25 07:32:30;;;;;;;10.10;4.67;;;;;;;0.23;69.62;95888.22;1794454;80;21576;-75
2022/02/25 07:34:57;;;;;;;8.00;4.70;;;;;;;0.19;69.18;95892.47;1765570;80;21053;-69
2022/02/25 07:37:23;;;;;;;9.10;5.57;;;;;;;0.22;69.43;95891.23;1794735;79;21009;-69
2022/02/25 07:39:50;;;;;;;14.93;6.60;;;;;;;0.28;69.49;95897.00;1784894;79;21046;-71
2022/02/25 07:42:17;;;;;;;15.47;7.50;;;;;;;0.32;69.91;95881.55;1780997;80;21038;-68
2022/02/25 07:44:43;;;;;;;15.30;7.80;;;;;;;0.47;70.54;95884.08;1782027;80;20963;-67
2022/02/25 07:47:10;;;;;;;17.63;10.73;;;;;;;0.69;69.98;95890.27;1780281;80;21089;-68
2022/02/25 07:49:36;;;;;;;19.83;9.87;;;;;;;0.87;69.58;95884.63;1780606;80;21101;-68
2022/02/25 07:52:03;;;;;;;12.90;8.40;;;;;;;1.02;69.09;95865.91;1780784;80;21050;-72
2022/02/25 07:54:31;;;;;;;12.10;8.17;;;;;;;1.19;69.52;95867.16;1781721;80;21014;-69
2022/02/25 07:56:59;;;;;;;39.17;22.80;;;;;;;1.30;68.75;95859.59;1780053;80;21101;-70
2022/02/25 07:59:25;;;;;;;14.77;11.27;;;;;;;1.46;68.44;95856.48;1780206;80;21529;-69
2022/02/25 08:01:52;;;;;;;14.87;10.83;;;;;;;1.63;68.23;95847.69;1780691;80;21046;-68
2022/02/25 08:04:19;;;;;;;16.47;10.37;;;;;;;1.79;67.68;95853.19;1780885;80;21038;-69
2022/02/25 08:06:46;;;;;;;12.40;9.20;;;;;;;1.84;66.79;95843.35;1780229;80;21595;-67
2022/02/25 08:09:13;;;;;;;11.83;7.03;;;;;;;1.93;67.16;95847.84;1780864;80;20990;-65
2022/02/25 08:11:41;;;;;;;13.43;7.77;;;;;;;1.98;66.25;95843.59;1781471;80;21098;-66
2022/02/25 08:14:07;;;;;;;14.53;8.43;;;;;;;2.07;66.41;95845.50;1781117;80;21033;-67
2022/02/25 08:16:34;;;;;;;9.67;5.33;;;;;;;2.18;66.12;95849.16;1780737;80;21344;-68
2022/02/25 08:19:01;;;;;;;10.97;6.63;;;;;;;2.24;65.36;95843.18;1781740;80;20971;-67
2022/02/25 08:21:27;;;;;;;10.43;6.00;;;;;;;2.29;64.72;95842.83;1781158;80;21029;-67
2022/02/25 08:23:54;;;;;;;5.77;4.33;;;;;;;2.45;65.42;95834.45;1781742;80;21057;-67
2022/02/25 08:26:21;;;;;;;6.40;3.20;;;;;;;2.58;63.49;95824.66;1781664;80;21053;-67
2022/02/25 08:28:47;;;;;;;6.87;4.60;;;;;;;2.66;61.83;95826.52;1781309;80;21054;-67
2022/02/25 08:31:14;;;;;;;6.87;3.90;;;;;;;2.80;62.84;95822.41;1781568;80;21026;-67
2022/02/25 08:33:41;;;;;;;9.83;3.50;;;;;;;2.97;62.47;95823.94;1781779;80;21548;-67
2022/02/25 08:36:08;;;;;;;7.60;3.10;;;;;;;3.09;62.29;95820.20;1780095;80;21050;-65
2022/02/25 08:38:35;;;;;;;5.07;2.63;;;;;;;3.21;62.14;95818.20;1780544;80;21077;-66
2022/02/25 08:41:03;;;;;;;4.63;2.30;;;;;;;3.33;61.93;95815.75;1781278;80;21082;-68
2022/02/25 08:43:31;;;;;;;4.80;2.77;;;;;;;3.45;61.36;95817.22;1781449;80;21018;-64
2022/02/25 08:45:58;;;;;;;5.47;2.60;;;;;;;3.58;61.80;95813.02;1781856;80;21038;-65
2022/02/25 08:48:25;;;;;;;5.00;2.67;;;;;;;3.77;62.66;95804.95;1785534;80;20995;-65
2022/02/25 08:50:51;;;;;;;4.30;2.60;;;;;;;3.90;62.25;95806.83;1781464;80;21042;-68
2022/02/25 08:53:18;;;;;;;5.93;3.37;;;;;;;4.02;60.10;95806.53;1780764;80;21497;-67
2022/02/25 08:55:45;;;;;;;7.80;3.30;;;;;;;4.03;59.46;95805.25;1780978;80;20991;-65
2022/02/25 08:58:13;;;;;;;7.77;2.97;;;;;;;3.96;58.40;95798.21;1781294;80;21077;-65
2022/02/25 09:00:40;;;;;;;8.73;4.20;;;;;;;4.04;59.90;95805.69;1780784;80;21465;-68
2022/02/25 09:03:07;;;;;;;7.00;3.43;;;;;;;4.11;59.33;95804.02;1773476;80;21025;-69
2022/02/25 09:05:34;;;;;;;6.53;3.00;;;;;;;4.10;57.25;95804.86;1757845;81;21045;-69
2022/02/25 09:08:00;;;;;;;13.33;6.10;;;;;;;4.22;55.55;95806.73;1758192;81;21042;-67
2022/02/25 09:10:27;;;;;;;21.17;8.33;;;;;;;4.33;57.36;95804.67;1757770;81;21043;-69
2022/02/25 09:12:53;;;;;;;7.90;4.43;;;;;;;4.46;57.84;95805.65;1749950;82;21113;-70
2022/02/25 09:15:26;;;;;;;10.20;5.43;;;;;;;4.57;56.76;95803.11;1757537;81;21555;-67
2022/02/25 09:17:57;;;;;;;10.72;5.15;;;;;;;4.70;57.67;95805.38;1751291;82;21185;-67
2022/02/25 09:20:26;;;;;;;9.07;5.50;;;;;;;4.85;59.03;95796.34;1757964;81;21059;-67
2022/02/25 09:22:54;;;;;;;8.20;3.27;;;;;;;5.05;58.52;95783.84;1749709;82;21094;-69
2022/02/25 09:25:21;;;;;;;15.83;7.77;;;;;;;5.19;57.32;95775.20;1758321;81;21004;-65
2022/02/25 09:27:48;;;;;;;18.30;9.70;;;;;;;5.29;57.08;95777.84;1750841;82;21168;-66
2022/02/25 09:30:15;;;;;;;11.00;5.50;;;;;;;5.45;57.50;95766.59;1757753;81;20976;-68
2022/02/25 09:32:43;;;;;;;8.83;4.90;;;;;;;5.63;57.14;95767.09;1749823;82;21069;-68
2022/02/25 09:35:10;;;;;;;5.50;3.50;;;;;;;5.79;57.34;95768.86;1757622;81;21114;-67
2022/02/25 09:37:36;;;;;;;8.10;3.70;;;;;;;5.89;55.54;95761.91;1750717;82;21107;-67
2022/02/25 09:40:08;;;;;;;7.73;2.50;;;;;;;6.03;55.70;95755.44;1758560;81;21460;-67
2022/02/25 09:42:37;;;;;;;6.10;3.37;;;;;;;6.11;54.92;95760.69;1750438;82;21154;-67
2022/02/25 09:45:06;;;;;;;5.87;3.60;;;;;;;6.22;54.68;95769.42;1757767;81;21062;-66
2022/02/25 09:47:35;;;;;;;5.67;3.40;;;;;;;6.36;54.56;95763.77;1751134;82;21010;-67
2022/02/25 09:50:12;;;;;;;8.40;3.37;;;;;;;6.48;54.60;95763.77;1758354;81;21019;-66
2022/02/25 09:52:40;;;;;;;5.63;3.10;;;;;;;6.60;54.41;95758.97;1751307;82;21595;-67
2022/02/25 09:55:26;;;;;;;7.50;3.23;;;;;;;6.72;54.62;95756.75;1758633;81;21028;-67
2022/02/25 09:57:54;;;;;;;8.07;3.93;;;;;;;6.83;53.53;95750.17;1751573;82;21509;-67
2022/02/25 10:00:22;;;;;;;6.27;4.10;;;;;;;6.92;52.59;95751.48;1758816;81;21110;-66
2022/02/25 10:02:54;;;;;;;5.63;3.37;;;;;;;7.03;52.84;95744.89;1751586;82;21006;-67
2022/02/25 10:05:25;;;;;;;7.37;3.80;;;;;;;7.09;51.48;95735.27;1753009;82;21025;-66
2022/02/25 10:07:52;;;;;;;10.03;4.83;;;;;;;7.05;50.21;95728.27;1753312;82;21069;-66
2022/02/25 10:10:27;;;;;;;9.80;3.40;;;;;;;7.21;51.68;95730.42;1753296;82;21523;-67
2022/02/25 10:13:03;;;;;;;6.97;3.40;;;;;;;7.36;48.85;95726.44;1753083;82;21531;-66
2022/02/25 10:15:32;;;;;;;10.33;4.47;;;;;;;7.49;49.17;95723.76;1752990;82;21033;-66
2022/02/25 10:18:05;;;;;;;6.87;4.43;;;;;;;7.54;47.78;95714.11;1753709;82;21005;-66
2022/02/25 10:20:33;;;;;;;7.25;4.03;;;;;;;7.65;48.78;95716.22;1753092;81;21029;-67
2022/02/25 10:23:01;;;;;;;8.73;3.80;;;;;;;7.82;49.27;95711.33;1753098;82;21093;-66
2022/02/25 10:25:36;;;;;;;7.87;4.20;;;;;;;7.84;46.19;95704.28;1753548;82;21476;-66
2022/02/25 10:28:05;;;;;;;7.00;4.00;;;;;;;7.84;46.57;95706.50;1753713;82;20985;-66
2022/02/25 10:30:32;;;;;;;6.53;4.10;;;;;;;7.76;47.87;95709.59;1753505;82;21009;-66
2022/02/25 10:32:59;;;;;;;8.60;5.23;;;;;;;7.82;47.92;95704.77;1753631;82;20990;-66
2022/02/25 10:35:35;;;;;;;6.33;3.83;;;;;;;8.00;47.00;95700.69;1753704;82;21084;-67
2022/02/25 10:38:16;;;;;;;6.83;4.00;;;;;;;8.20;49.00;95705.36;1753661;82;20985;-66
2022/02/25 10:40:52;;;;;;;5.10;3.50;;;;;;;8.36;46.13;95711.80;1751472;81;21049;-67
2022/02/25 10:43:26;;;;;;;6.67;3.27;;;;;;;8.36;45.94;95713.12;1751152;82;20994;-66
2022/02/25 10:45:56;;;;;;;7.60;3.93;;;;;;;8.40;45.01;95713.12;1750214;82;21517;-67
2022/02/25 10:48:29;;;;;;;7.47;3.90;;;;;;;8.51;43.98;95706.90;1750583;82;20982;-67
2022/02/25 10:51:06;;;;;;;7.33;3.62;;;;;;;8.78;44.77;95705.33;1750668;82;20978;-67
2022/02/25 10:53:51;;;;;;;6.03;3.60;;;;;;;9.25;44.23;95701.77;1750465;82;21021;-67
2022/02/25 10:56:21;;;;;;;7.13;3.17;;;;;;;9.79;44.28;95701.95;1750517;82;21129;-66
2022/02/25 10:58:54;;;;;;;4.40;3.22;;;;;;;10.23;42.76;95697.80;1750636;81;21519;-67
2022/02/25 11:01:36;;;;;;;7.08;3.00;;;;;;;10.78;42.48;95690.73;1751034;82;21054;-66
2022/02/25 11:04:17;;;;;;;5.97;2.85;;;;;;;11.25;39.63;95691.62;1751112;82;21021;-69
2022/02/25 11:06:43;;;;;;;8.88;3.27;;;;;;;11.73;41.67;95693.30;1750880;82;21606;-66
2022/02/25 11:09:10;;;;;;;6.00;3.87;;;;;;;12.16;38.74;95695.88;1750939;82;21001;-66
2022/02/25 11:11:37;;;;;;;7.58;2.95;;;;;;;12.48;36.37;95690.30;1750935;82;21009;-67
2022/02/25 11:14:08;;;;;;;5.20;3.20;;;;;;;12.74;38.00;95696.25;1751079;81;20997;-67
2022/02/25 11:16:39;;;;;;;4.40;3.00;;;;;;;12.93;34.83;95682.09;1751000;82;21005;-67
2022/02/25 11:19:07;;;;;;;4.15;2.37;;;;;;;12.93;35.98;95672.36;1751212;81;21440;-68
2022/02/25 11:21:34;;;;;;;4.72;3.10;;;;;;;13.34;36.74;95667.73;1750739;82;21022;-66
2022/02/25 11:24:01;;;;;;;5.42;3.33;;;;;;;13.81;33.76;95677.89;1751102;82;21014;-68
2022/02/25 11:26:27;;;;;;;5.58;2.92;;;;;;;13.80;34.44;95666.39;1750971;81;21010;-68
2022/02/25 11:29:00;;;;;;;5.62;3.35;;;;;;;14.02;34.94;95670.59;1750864;82;21002;-68
2022/02/25 11:31:28;;;;;;;6.45;3.85;;;;;;;14.19;33.15;95663.91;1751027;81;20994;-68
2022/02/25 11:33:55;;;;;;;6.20;3.42;;;;;;;14.14;33.35;95660.06;1751053;82;20976;-68
2022/02/25 11:36:48;;;;;;;7.05;3.37;;;;;;;14.11;33.86;95668.12;1750829;82;21522;-69
2022/02/25 11:39:30;;;;;;;6.35;4.30;;;;;;;14.46;33.77;95661.69;1751227;82;20997;-68
2022/02/25 11:42:01;;;;;;;35.52;6.25;;;;;;;14.87;34.75;95670.55;1750973;82;21082;-68
2022/02/25 11:44:31;;;;;;;5.97;4.28;;;;;;;15.09;32.38;95668.00;1750908;82;21006;-68